sensor_id;sensor_type;location;lat;lon;timestamp;P1;durP1;ratioP1;P2;durP2;ratioP2
17686;SDS011;8962;52.538;13.266;2023-11-18T00:00:06;10.63;;;7.30;;
17686;SDS011;8962;52.538;13.266;2023-11-18T00:02:37;11.38;;;6.82;;
17686;SDS011;8962;52.538;13.266;2023-11-18T00:05:05;10.60;;;7.35;;
17686;SDS011;8962;52.538;13.266;2023-11-18T00:07:33;13.70;;;7.55;;
17686;SDS011;8962;52.538;13.266;2023-11-18T00:10:01;11.68;;;7.60;;
17686;SDS011;8962;52.538;13.266;2023-11-18T00:12:30;11.18;;;7.07;;
17686;SDS011;8962;52.538;13.266;2023-11-18T00:14:59;10.00;;;6.80;;
17686;SDS011;8962;52.538;13.266;2023-11-18T00:17:28;11.85;;;7.18;;
17686;SDS011;8962;52.538;13.266;2023-11-18T00:19:57;11.65;;;7.40;;
17686;SDS011;8962;52.538;13.266;2023-11-18T00:22:24;11.73;;;7.32;;
17686;SDS011;8962;52.538;13.266;2023-11-18T00:24:53;10.80;;;7.20;;
17686;SDS011;8962;52.538;13.266;2023-11-18T00:27:20;8.82;;;6.63;;
17686;SDS011;8962;52.538;13.266;2023-11-18T00:29:49;11.38;;;7.57;;
17686;SDS011;8962;52.538;13.266;2023-11-18T00:32:18;13.10;;;6.85;;
17686;SDS011;8962;52.538;13.266;2023-11-18T00:34:45;12.38;;;7.25;;
17686;SDS011;8962;52.538;13.266;2023-11-18T00:37:12;11.40;;;7.30;;
17686;SDS011;8962;52.538;13.266;2023-11-18T00:39:39;12.60;;;7.82;;
17686;SDS011;8962;52.538;13.266;2023-11-18T00:42:08;11.25;;;7.70;;
17686;SDS011;8962;52.538;13.266;2023-11-18T00:44:37;10.40;;;7.38;;
17686;SDS011;8962;52.538;13.266;2023-11-18T00:47:06;11.43;;;6.95;;
17686;SDS011;8962;52.538;13.266;2023-11-18T00:49:33;11.32;;;8.07;;
17686;SDS011;8962;52.538;13.266;2023-11-18T00:52:01;10.35;;;7.10;;
17686;SDS011;8962;52.538;13.266;2023-11-18T00:54:28;11.05;;;7.43;;
17686;SDS011;8962;52.538;13.266;2023-11-18T00:56:58;10.30;;;6.97;;
17686;SDS011;8962;52.538;13.266;2023-11-18T00:59:25;12.05;;;7.50;;
17686;SDS011;8962;52.538;13.266;2023-11-18T01:01:54;10.63;;;7.00;;
17686;SDS011;8962;52.538;13.266;2023-11-18T01:04:22;10.38;;;6.82;;
17686;SDS011;8962;52.538;13.266;2023-11-18T01:06:51;11.50;;;7.35;;
17686;SDS011;8962;52.538;13.266;2023-11-18T01:09:18;11.32;;;6.65;;
17686;SDS011;8962;52.538;13.266;2023-11-18T01:11:45;13.50;;;6.63;;
17686;SDS011;8962;52.538;13.266;2023-11-18T01:14:12;10.32;;;7.05;;
17686;SDS011;8962;52.538;13.266;2023-11-18T01:16:39;10.30;;;6.97;;
17686;SDS011;8962;52.538;13.266;2023-11-18T01:19:07;10.10;;;7.22;;
17686;SDS011;8962;52.538;13.266;2023-11-18T01:21:36;9.60;;;6.88;;
17686;SDS011;8962;52.538;13.266;2023-11-18T01:24:03;10.02;;;6.70;;
17686;SDS011;8962;52.538;13.266;2023-11-18T01:26:34;9.60;;;6.82;;
17686;SDS011;8962;52.538;13.266;2023-11-18T01:29:02;10.95;;;6.70;;
17686;SDS011;8962;52.538;13.266;2023-11-18T01:31:29;10.88;;;7.03;;
17686;SDS011;8962;52.538;13.266;2023-11-18T01:33:57;10.52;;;7.25;;
17686;SDS011;8962;52.538;13.266;2023-11-18T01:36:25;9.27;;;6.07;;
17686;SDS011;8962;52.538;13.266;2023-11-18T01:38:54;10.20;;;6.70;;
17686;SDS011;8962;52.538;13.266;2023-11-18T01:41:22;9.73;;;6.53;;
17686;SDS011;8962;52.538;13.266;2023-11-18T01:43:50;10.63;;;7.10;;
17686;SDS011;8962;52.538;13.266;2023-11-18T01:46:18;12.77;;;6.88;;
17686;SDS011;8962;52.538;13.266;2023-11-18T01:48:48;9.90;;;6.53;;
17686;SDS011;8962;52.538;13.266;2023-11-18T01:51:16;11.13;;;7.35;;
17686;SDS011;8962;52.538;13.266;2023-11-18T01:53:46;10.93;;;7.32;;
17686;SDS011;8962;52.538;13.266;2023-11-18T01:56:16;10.95;;;6.85;;
17686;SDS011;8962;52.538;13.266;2023-11-18T01:58:46;13.75;;;7.57;;
17686;SDS011;8962;52.538;13.266;2023-11-18T02:01:14;9.52;;;6.80;;
17686;SDS011;8962;52.538;13.266;2023-11-18T02:03:42;11.23;;;7.25;;
17686;SDS011;8962;52.538;13.266;2023-11-18T02:06:10;11.00;;;6.35;;
17686;SDS011;8962;52.538;13.266;2023-11-18T02:08:39;11.93;;;7.25;;
17686;SDS011;8962;52.538;13.266;2023-11-18T02:11:10;11.15;;;7.97;;
17686;SDS011;8962;52.538;13.266;2023-11-18T02:13:48;11.65;;;7.45;;
17686;SDS011;8962;52.538;13.266;2023-11-18T02:16:20;11.25;;;6.95;;
17686;SDS011;8962;52.538;13.266;2023-11-18T02:18:49;10.23;;;6.78;;
17686;SDS011;8962;52.538;13.266;2023-11-18T02:21:19;10.10;;;6.35;;
17686;SDS011;8962;52.538;13.266;2023-11-18T02:23:48;11.20;;;7.75;;
17686;SDS011;8962;52.538;13.266;2023-11-18T02:26:21;11.63;;;7.40;;
17686;SDS011;8962;52.538;13.266;2023-11-18T02:28:49;10.82;;;7.35;;
17686;SDS011;8962;52.538;13.266;2023-11-18T02:31:20;10.88;;;7.22;;
17686;SDS011;8962;52.538;13.266;2023-11-18T02:33:53;13.52;;;7.80;;
17686;SDS011;8962;52.538;13.266;2023-11-18T02:36:31;11.07;;;7.70;;
17686;SDS011;8962;52.538;13.266;2023-11-18T02:39:03;11.57;;;7.65;;
17686;SDS011;8962;52.538;13.266;2023-11-18T02:41:35;12.25;;;8.02;;
17686;SDS011;8962;52.538;13.266;2023-11-18T02:44:06;12.70;;;8.13;;
17686;SDS011;8962;52.538;13.266;2023-11-18T02:46:37;11.43;;;7.40;;
17686;SDS011;8962;52.538;13.266;2023-11-18T02:49:09;13.75;;;7.68;;
17686;SDS011;8962;52.538;13.266;2023-11-18T02:51:37;11.05;;;7.35;;
17686;SDS011;8962;52.538;13.266;2023-11-18T02:54:04;11.40;;;7.03;;
17686;SDS011;8962;52.538;13.266;2023-11-18T02:56:37;11.63;;;7.70;;
17686;SDS011;8962;52.538;13.266;2023-11-18T02:59:05;12.38;;;7.60;;
17686;SDS011;8962;52.538;13.266;2023-11-18T03:01:32;12.00;;;7.22;;
17686;SDS011;8962;52.538;13.266;2023-11-18T03:04:00;12.23;;;7.88;;
17686;SDS011;8962;52.538;13.266;2023-11-18T03:06:27;12.30;;;7.70;;
17686;SDS011;8962;52.538;13.266;2023-11-18T03:08:54;12.85;;;7.70;;
17686;SDS011;8962;52.538;13.266;2023-11-18T03:11:21;13.50;;;8.02;;
17686;SDS011;8962;52.538;13.266;2023-11-18T03:13:50;12.80;;;7.03;;
17686;SDS011;8962;52.538;13.266;2023-11-18T03:16:18;12.60;;;7.57;;
17686;SDS011;8962;52.538;13.266;2023-11-18T03:18:46;14.70;;;7.57;;
17686;SDS011;8962;52.538;13.266;2023-11-18T03:21:15;12.50;;;7.03;;
17686;SDS011;8962;52.538;13.266;2023-11-18T03:23:42;11.82;;;7.28;;
17686;SDS011;8962;52.538;13.266;2023-11-18T03:26:09;10.00;;;6.68;;
17686;SDS011;8962;52.538;13.266;2023-11-18T03:28:38;10.55;;;7.07;;
17686;SDS011;8962;52.538;13.266;2023-11-18T03:31:08;12.48;;;7.35;;
17686;SDS011;8962;52.538;13.266;2023-11-18T03:33:37;11.00;;;6.95;;
17686;SDS011;8962;52.538;13.266;2023-11-18T03:36:04;11.05;;;7.22;;
17686;SDS011;8962;52.538;13.266;2023-11-18T03:38:34;14.55;;;7.22;;
17686;SDS011;8962;52.538;13.266;2023-11-18T03:41:01;11.75;;;7.43;;
17686;SDS011;8962;52.538;13.266;2023-11-18T03:43:28;14.20;;;8.25;;
17686;SDS011;8962;52.538;13.266;2023-11-18T03:45:55;11.85;;;7.95;;
17686;SDS011;8962;52.538;13.266;2023-11-18T03:48:24;13.50;;;7.68;;
17686;SDS011;8962;52.538;13.266;2023-11-18T03:50:51;12.85;;;7.85;;
17686;SDS011;8962;52.538;13.266;2023-11-18T03:53:19;11.60;;;7.57;;
17686;SDS011;8962;52.538;13.266;2023-11-18T03:55:46;15.55;;;7.63;;
17686;SDS011;8962;52.538;13.266;2023-11-18T03:58:13;12.50;;;7.65;;
17686;SDS011;8962;52.538;13.266;2023-11-18T04:00:40;14.43;;;8.60;;
17686;SDS011;8962;52.538;13.266;2023-11-18T04:03:08;14.60;;;8.68;;
17686;SDS011;8962;52.538;13.266;2023-11-18T04:05:39;14.10;;;8.43;;
17686;SDS011;8962;52.538;13.266;2023-11-18T04:08:06;15.05;;;8.80;;
17686;SDS011;8962;52.538;13.266;2023-11-18T04:10:33;15.15;;;9.25;;
17686;SDS011;8962;52.538;13.266;2023-11-18T04:13:01;14.95;;;8.40;;
17686;SDS011;8962;52.538;13.266;2023-11-18T04:15:28;13.73;;;8.85;;
17686;SDS011;8962;52.538;13.266;2023-11-18T04:17:55;13.50;;;8.07;;
17686;SDS011;8962;52.538;13.266;2023-11-18T04:20:23;12.27;;;8.00;;
17686;SDS011;8962;52.538;13.266;2023-11-18T04:22:54;14.32;;;8.68;;
17686;SDS011;8962;52.538;13.266;2023-11-18T04:25:26;12.50;;;8.38;;
17686;SDS011;8962;52.538;13.266;2023-11-18T04:27:53;13.93;;;8.73;;
17686;SDS011;8962;52.538;13.266;2023-11-18T04:30:21;13.52;;;8.50;;
17686;SDS011;8962;52.538;13.266;2023-11-18T04:32:48;15.45;;;9.15;;
17686;SDS011;8962;52.538;13.266;2023-11-18T04:35:17;14.23;;;9.00;;
17686;SDS011;8962;52.538;13.266;2023-11-18T04:37:47;16.10;;;8.43;;
17686;SDS011;8962;52.538;13.266;2023-11-18T04:40:16;15.27;;;8.80;;
17686;SDS011;8962;52.538;13.266;2023-11-18T04:42:43;18.65;;;9.13;;
17686;SDS011;8962;52.538;13.266;2023-11-18T04:45:11;15.40;;;9.07;;
17686;SDS011;8962;52.538;13.266;2023-11-18T04:47:39;18.15;;;8.95;;
17686;SDS011;8962;52.538;13.266;2023-11-18T04:50:08;18.80;;;8.48;;
17686;SDS011;8962;52.538;13.266;2023-11-18T04:52:36;14.05;;;8.98;;
17686;SDS011;8962;52.538;13.266;2023-11-18T04:55:04;13.95;;;8.43;;
17686;SDS011;8962;52.538;13.266;2023-11-18T04:57:33;15.27;;;8.77;;
17686;SDS011;8962;52.538;13.266;2023-11-18T05:00:01;13.88;;;8.05;;
17686;SDS011;8962;52.538;13.266;2023-11-18T05:02:35;15.25;;;8.52;;
17686;SDS011;8962;52.538;13.266;2023-11-18T05:05:03;15.07;;;8.80;;
17686;SDS011;8962;52.538;13.266;2023-11-18T05:07:32;12.65;;;8.45;;
17686;SDS011;8962;52.538;13.266;2023-11-18T05:10:00;14.50;;;8.98;;
17686;SDS011;8962;52.538;13.266;2023-11-18T05:12:28;14.45;;;8.48;;
17686;SDS011;8962;52.538;13.266;2023-11-18T05:14:56;15.15;;;8.93;;
17686;SDS011;8962;52.538;13.266;2023-11-18T05:17:24;19.05;;;8.50;;
17686;SDS011;8962;52.538;13.266;2023-11-18T05:19:52;13.52;;;8.18;;
17686;SDS011;8962;52.538;13.266;2023-11-18T05:22:21;15.35;;;9.13;;
17686;SDS011;8962;52.538;13.266;2023-11-18T05:24:49;16.02;;;8.82;;
17686;SDS011;8962;52.538;13.266;2023-11-18T05:27:18;15.80;;;9.02;;
17686;SDS011;8962;52.538;13.266;2023-11-18T05:29:45;14.25;;;8.93;;
17686;SDS011;8962;52.538;13.266;2023-11-18T05:32:22;16.23;;;8.68;;
17686;SDS011;8962;52.538;13.266;2023-11-18T05:34:50;15.15;;;8.98;;
17686;SDS011;8962;52.538;13.266;2023-11-18T05:37:20;16.92;;;8.57;;
17686;SDS011;8962;52.538;13.266;2023-11-18T05:39:48;13.43;;;8.32;;
17686;SDS011;8962;52.538;13.266;2023-11-18T05:42:24;15.40;;;8.80;;
17686;SDS011;8962;52.538;13.266;2023-11-18T05:44:51;14.13;;;8.18;;
17686;SDS011;8962;52.538;13.266;2023-11-18T05:47:25;13.70;;;8.23;;
17686;SDS011;8962;52.538;13.266;2023-11-18T05:49:53;14.38;;;8.43;;
17686;SDS011;8962;52.538;13.266;2023-11-18T05:52:20;12.80;;;7.80;;
17686;SDS011;8962;52.538;13.266;2023-11-18T05:54:48;13.55;;;8.70;;
17686;SDS011;8962;52.538;13.266;2023-11-18T05:57:16;13.98;;;8.57;;
17686;SDS011;8962;52.538;13.266;2023-11-18T05:59:43;13.50;;;8.18;;
17686;SDS011;8962;52.538;13.266;2023-11-18T06:02:12;13.00;;;8.18;;
17686;SDS011;8962;52.538;13.266;2023-11-18T06:04:45;13.35;;;7.85;;
17686;SDS011;8962;52.538;13.266;2023-11-18T06:07:12;15.90;;;8.13;;
17686;SDS011;8962;52.538;13.266;2023-11-18T06:09:40;15.18;;;7.95;;
17686;SDS011;8962;52.538;13.266;2023-11-18T06:12:07;12.27;;;8.05;;
17686;SDS011;8962;52.538;13.266;2023-11-18T06:14:35;13.95;;;8.27;;
17686;SDS011;8962;52.538;13.266;2023-11-18T06:17:03;12.30;;;7.93;;
17686;SDS011;8962;52.538;13.266;2023-11-18T06:19:32;13.68;;;8.18;;
17686;SDS011;8962;52.538;13.266;2023-11-18T06:22:02;13.60;;;8.85;;
17686;SDS011;8962;52.538;13.266;2023-11-18T06:24:31;15.32;;;8.20;;
17686;SDS011;8962;52.538;13.266;2023-11-18T06:26:59;14.48;;;8.43;;
17686;SDS011;8962;52.538;13.266;2023-11-18T06:29:27;12.73;;;8.50;;
17686;SDS011;8962;52.538;13.266;2023-11-18T06:31:55;14.80;;;9.02;;
17686;SDS011;8962;52.538;13.266;2023-11-18T06:34:22;14.48;;;8.73;;
17686;SDS011;8962;52.538;13.266;2023-11-18T06:36:52;14.85;;;8.70;;
17686;SDS011;8962;52.538;13.266;2023-11-18T06:39:22;15.13;;;8.93;;
17686;SDS011;8962;52.538;13.266;2023-11-18T06:41:54;17.20;;;9.95;;
17686;SDS011;8962;52.538;13.266;2023-11-18T06:44:24;15.13;;;9.55;;
17686;SDS011;8962;52.538;13.266;2023-11-18T06:46:51;16.52;;;9.35;;
17686;SDS011;8962;52.538;13.266;2023-11-18T06:49:20;16.90;;;9.48;;
17686;SDS011;8962;52.538;13.266;2023-11-18T06:51:47;16.50;;;9.75;;
17686;SDS011;8962;52.538;13.266;2023-11-18T06:54:16;16.23;;;9.77;;
17686;SDS011;8962;52.538;13.266;2023-11-18T06:56:47;14.82;;;8.82;;
17686;SDS011;8962;52.538;13.266;2023-11-18T06:59:16;17.05;;;9.43;;
17686;SDS011;8962;52.538;13.266;2023-11-18T07:01:43;16.20;;;9.93;;
17686;SDS011;8962;52.538;13.266;2023-11-18T07:04:10;17.00;;;9.90;;
17686;SDS011;8962;52.538;13.266;2023-11-18T07:06:39;17.45;;;9.55;;
17686;SDS011;8962;52.538;13.266;2023-11-18T07:09:06;15.50;;;9.45;;
17686;SDS011;8962;52.538;13.266;2023-11-18T07:11:38;17.23;;;10.15;;
17686;SDS011;8962;52.538;13.266;2023-11-18T07:14:07;19.10;;;10.82;;
17686;SDS011;8962;52.538;13.266;2023-11-18T07:16:35;20.50;;;11.45;;
17686;SDS011;8962;52.538;13.266;2023-11-18T07:19:04;16.67;;;10.68;;
17686;SDS011;8962;52.538;13.266;2023-11-18T07:21:33;18.90;;;10.82;;
17686;SDS011;8962;52.538;13.266;2023-11-18T07:24:03;16.17;;;10.07;;
17686;SDS011;8962;52.538;13.266;2023-11-18T07:26:30;16.75;;;10.00;;
17686;SDS011;8962;52.538;13.266;2023-11-18T07:28:58;17.23;;;10.02;;
17686;SDS011;8962;52.538;13.266;2023-11-18T07:31:27;17.63;;;10.45;;
17686;SDS011;8962;52.538;13.266;2023-11-18T07:33:54;16.90;;;9.93;;
17686;SDS011;8962;52.538;13.266;2023-11-18T07:36:22;17.15;;;10.10;;
17686;SDS011;8962;52.538;13.266;2023-11-18T07:38:49;18.10;;;10.13;;
17686;SDS011;8962;52.538;13.266;2023-11-18T07:41:17;15.82;;;9.35;;
17686;SDS011;8962;52.538;13.266;2023-11-18T07:43:49;16.38;;;9.48;;
17686;SDS011;8962;52.538;13.266;2023-11-18T07:46:21;16.95;;;10.20;;
17686;SDS011;8962;52.538;13.266;2023-11-18T07:48:50;16.17;;;9.80;;
17686;SDS011;8962;52.538;13.266;2023-11-18T07:51:18;15.25;;;9.75;;
17686;SDS011;8962;52.538;13.266;2023-11-18T07:53:46;18.58;;;10.13;;
17686;SDS011;8962;52.538;13.266;2023-11-18T07:56:13;16.67;;;9.75;;
17686;SDS011;8962;52.538;13.266;2023-11-18T07:58:41;17.67;;;9.80;;
17686;SDS011;8962;52.538;13.266;2023-11-18T08:01:11;14.85;;;9.25;;
17686;SDS011;8962;52.538;13.266;2023-11-18T08:03:41;15.82;;;9.63;;
17686;SDS011;8962;52.538;13.266;2023-11-18T08:06:10;16.63;;;9.25;;
17686;SDS011;8962;52.538;13.266;2023-11-18T08:08:39;17.05;;;9.93;;
17686;SDS011;8962;52.538;13.266;2023-11-18T08:11:07;16.67;;;9.68;;
17686;SDS011;8962;52.538;13.266;2023-11-18T08:13:36;15.38;;;9.00;;
17686;SDS011;8962;52.538;13.266;2023-11-18T08:16:05;14.48;;;8.43;;
17686;SDS011;8962;52.538;13.266;2023-11-18T08:18:33;14.20;;;8.90;;
17686;SDS011;8962;52.538;13.266;2023-11-18T08:21:04;14.27;;;8.70;;
17686;SDS011;8962;52.538;13.266;2023-11-18T08:23:34;15.50;;;9.05;;
17686;SDS011;8962;52.538;13.266;2023-11-18T08:26:02;14.63;;;8.43;;
17686;SDS011;8962;52.538;13.266;2023-11-18T08:28:30;15.48;;;8.43;;
17686;SDS011;8962;52.538;13.266;2023-11-18T08:30:58;14.35;;;9.50;;
17686;SDS011;8962;52.538;13.266;2023-11-18T08:33:27;13.88;;;9.05;;
17686;SDS011;8962;52.538;13.266;2023-11-18T08:35:55;15.57;;;8.98;;
17686;SDS011;8962;52.538;13.266;2023-11-18T08:38:23;15.38;;;8.32;;
17686;SDS011;8962;52.538;13.266;2023-11-18T08:40:51;13.90;;;8.68;;
17686;SDS011;8962;52.538;13.266;2023-11-18T08:43:20;13.38;;;8.68;;
17686;SDS011;8962;52.538;13.266;2023-11-18T08:45:47;15.60;;;9.15;;
17686;SDS011;8962;52.538;13.266;2023-11-18T08:48:15;14.05;;;9.05;;
17686;SDS011;8962;52.538;13.266;2023-11-18T08:50:43;11.88;;;7.93;;
17686;SDS011;8962;52.538;13.266;2023-11-18T08:53:10;16.38;;;9.23;;
17686;SDS011;8962;52.538;13.266;2023-11-18T08:55:38;14.02;;;8.38;;
17686;SDS011;8962;52.538;13.266;2023-11-18T08:58:08;13.68;;;8.90;;
17686;SDS011;8962;52.538;13.266;2023-11-18T09:00:44;13.52;;;8.23;;
17686;SDS011;8962;52.538;13.266;2023-11-18T09:03:18;14.30;;;8.27;;
17686;SDS011;8962;52.538;13.266;2023-11-18T09:05:54;15.40;;;8.70;;
17686;SDS011;8962;52.538;13.266;2023-11-18T09:08:23;14.07;;;7.45;;
17686;SDS011;8962;52.538;13.266;2023-11-18T09:10:53;12.82;;;7.65;;
17686;SDS011;8962;52.538;13.266;2023-11-18T09:13:23;12.50;;;8.48;;
17686;SDS011;8962;52.538;13.266;2023-11-18T09:15:54;11.68;;;7.00;;
17686;SDS011;8962;52.538;13.266;2023-11-18T09:18:23;10.18;;;7.20;;
17686;SDS011;8962;52.538;13.266;2023-11-18T09:20:51;13.50;;;7.78;;
17686;SDS011;8962;52.538;13.266;2023-11-18T09:23:20;16.85;;;7.68;;
17686;SDS011;8962;52.538;13.266;2023-11-18T09:25:52;12.70;;;7.85;;
17686;SDS011;8962;52.538;13.266;2023-11-18T09:28:20;11.15;;;7.57;;
17686;SDS011;8962;52.538;13.266;2023-11-18T09:30:49;12.15;;;7.75;;
17686;SDS011;8962;52.538;13.266;2023-11-18T09:33:20;11.63;;;8.02;;
17686;SDS011;8962;52.538;13.266;2023-11-18T09:35:58;12.88;;;8.02;;
17686;SDS011;8962;52.538;13.266;2023-11-18T09:38:25;14.13;;;8.50;;
17686;SDS011;8962;52.538;13.266;2023-11-18T09:40:56;14.07;;;8.18;;
17686;SDS011;8962;52.538;13.266;2023-11-18T09:43:28;12.82;;;8.75;;
17686;SDS011;8962;52.538;13.266;2023-11-18T09:46:02;12.50;;;8.40;;
17686;SDS011;8962;52.538;13.266;2023-11-18T09:48:38;13.25;;;8.18;;
17686;SDS011;8962;52.538;13.266;2023-11-18T09:51:14;14.43;;;8.02;;
17686;SDS011;8962;52.538;13.266;2023-11-18T09:53:46;12.95;;;8.20;;
17686;SDS011;8962;52.538;13.266;2023-11-18T09:56:18;13.25;;;8.35;;
17686;SDS011;8962;52.538;13.266;2023-11-18T09:58:58;12.85;;;8.25;;
17686;SDS011;8962;52.538;13.266;2023-11-18T10:01:35;12.35;;;8.35;;
17686;SDS011;8962;52.538;13.266;2023-11-18T10:04:08;14.70;;;8.45;;
17686;SDS011;8962;52.538;13.266;2023-11-18T10:06:36;15.50;;;8.80;;
17686;SDS011;8962;52.538;13.266;2023-11-18T10:09:06;13.82;;;9.23;;
17686;SDS011;8962;52.538;13.266;2023-11-18T10:11:43;13.52;;;8.65;;
17686;SDS011;8962;52.538;13.266;2023-11-18T10:14:12;17.17;;;10.13;;
17686;SDS011;8962;52.538;13.266;2023-11-18T10:16:44;14.52;;;9.18;;
17686;SDS011;8962;52.538;13.266;2023-11-18T10:19:14;15.18;;;8.73;;
17686;SDS011;8962;52.538;13.266;2023-11-18T10:21:42;15.65;;;9.77;;
17686;SDS011;8962;52.538;13.266;2023-11-18T10:24:15;13.57;;;7.97;;
17686;SDS011;8962;52.538;13.266;2023-11-18T10:26:44;12.40;;;8.20;;
17686;SDS011;8962;52.538;13.266;2023-11-18T10:29:20;12.43;;;7.75;;
17686;SDS011;8962;52.538;13.266;2023-11-18T10:31:50;13.63;;;8.10;;
17686;SDS011;8962;52.538;13.266;2023-11-18T10:34:35;12.20;;;8.00;;
17686;SDS011;8962;52.538;13.266;2023-11-18T10:37:05;14.30;;;7.60;;
17686;SDS011;8962;52.538;13.266;2023-11-18T10:39:36;12.05;;;7.38;;
17686;SDS011;8962;52.538;13.266;2023-11-18T10:42:03;10.20;;;7.00;;
17686;SDS011;8962;52.538;13.266;2023-11-18T10:44:31;11.07;;;7.13;;
17686;SDS011;8962;52.538;13.266;2023-11-18T10:47:00;18.55;;;8.48;;
17686;SDS011;8962;52.538;13.266;2023-11-18T10:49:27;12.55;;;7.60;;
17686;SDS011;8962;52.538;13.266;2023-11-18T10:52:03;11.90;;;8.10;;
17686;SDS011;8962;52.538;13.266;2023-11-18T10:54:33;13.20;;;8.35;;
17686;SDS011;8962;52.538;13.266;2023-11-18T10:57:02;15.50;;;8.60;;
17686;SDS011;8962;52.538;13.266;2023-11-18T10:59:32;14.95;;;8.50;;
17686;SDS011;8962;52.538;13.266;2023-11-18T11:02:01;14.52;;;9.00;;
17686;SDS011;8962;52.538;13.266;2023-11-18T11:04:46;11.40;;;7.22;;
17686;SDS011;8962;52.538;13.266;2023-11-18T11:07:14;12.40;;;8.48;;
17686;SDS011;8962;52.538;13.266;2023-11-18T11:09:44;14.30;;;8.77;;
17686;SDS011;8962;52.538;13.266;2023-11-18T11:12:14;12.52;;;7.85;;
17686;SDS011;8962;52.538;13.266;2023-11-18T11:14:46;12.23;;;7.65;;
17686;SDS011;8962;52.538;13.266;2023-11-18T11:17:22;13.07;;;7.63;;
17686;SDS011;8962;52.538;13.266;2023-11-18T11:19:55;11.05;;;6.75;;
17686;SDS011;8962;52.538;13.266;2023-11-18T11:22:37;13.43;;;7.40;;
17686;SDS011;8962;52.538;13.266;2023-11-18T11:25:09;12.98;;;6.82;;
17686;SDS011;8962;52.538;13.266;2023-11-18T11:27:50;11.98;;;7.90;;
17686;SDS011;8962;52.538;13.266;2023-11-18T11:30:28;10.60;;;7.38;;
17686;SDS011;8962;52.538;13.266;2023-11-18T11:33:06;13.20;;;7.85;;
17686;SDS011;8962;52.538;13.266;2023-11-18T11:35:43;12.45;;;7.95;;
17686;SDS011;8962;52.538;13.266;2023-11-18T11:38:15;9.40;;;6.22;;
17686;SDS011;8962;52.538;13.266;2023-11-18T11:40:59;10.07;;;6.68;;
17686;SDS011;8962;52.538;13.266;2023-11-18T11:43:30;8.57;;;5.82;;
17686;SDS011;8962;52.538;13.266;2023-11-18T11:45:59;10.68;;;6.30;;
17686;SDS011;8962;52.538;13.266;2023-11-18T11:48:30;10.13;;;6.40;;
17686;SDS011;8962;52.538;13.266;2023-11-18T11:51:09;9.57;;;6.47;;
17686;SDS011;8962;52.538;13.266;2023-11-18T11:53:47;11.55;;;6.97;;
17686;SDS011;8962;52.538;13.266;2023-11-18T11:56:18;10.02;;;6.50;;
17686;SDS011;8962;52.538;13.266;2023-11-18T11:58:49;10.50;;;6.45;;
17686;SDS011;8962;52.538;13.266;2023-11-18T12:01:21;10.15;;;6.15;;
17686;SDS011;8962;52.538;13.266;2023-11-18T12:03:59;12.68;;;7.00;;
17686;SDS011;8962;52.538;13.266;2023-11-18T12:06:31;16.08;;;8.82;;
17686;SDS011;8962;52.538;13.266;2023-11-18T12:09:00;11.43;;;7.13;;
17686;SDS011;8962;52.538;13.266;2023-11-18T12:11:32;11.40;;;6.55;;
17686;SDS011;8962;52.538;13.266;2023-11-18T12:14:05;10.85;;;6.95;;
17686;SDS011;8962;52.538;13.266;2023-11-18T12:19:40;8.85;;;6.10;;
17686;SDS011;8962;52.538;13.266;2023-11-18T12:22:14;9.82;;;6.20;;
17686;SDS011;8962;52.538;13.266;2023-11-18T12:28:08;10.13;;;5.63;;
17686;SDS011;8962;52.538;13.266;2023-11-18T12:30:39;9.40;;;6.15;;
17686;SDS011;8962;52.538;13.266;2023-11-18T12:33:17;10.50;;;6.20;;
17686;SDS011;8962;52.538;13.266;2023-11-18T12:42:02;19.50;;;8.95;;
17686;SDS011;8962;52.538;13.266;2023-11-18T12:44:37;12.23;;;7.07;;
17686;SDS011;8962;52.538;13.266;2023-11-18T12:47:10;11.15;;;6.82;;
17686;SDS011;8962;52.538;13.266;2023-11-18T12:49:46;11.15;;;6.75;;
17686;SDS011;8962;52.538;13.266;2023-11-18T12:52:19;10.80;;;5.93;;
17686;SDS011;8962;52.538;13.266;2023-11-18T12:54:48;9.23;;;6.03;;
17686;SDS011;8962;52.538;13.266;2023-11-18T12:57:18;8.27;;;5.60;;
17686;SDS011;8962;52.538;13.266;2023-11-18T12:59:48;8.00;;;5.55;;
17686;SDS011;8962;52.538;13.266;2023-11-18T13:02:16;10.07;;;5.88;;
17686;SDS011;8962;52.538;13.266;2023-11-18T13:04:44;8.90;;;5.13;;
17686;SDS011;8962;52.538;13.266;2023-11-18T13:07:13;8.23;;;5.35;;
17686;SDS011;8962;52.538;13.266;2023-11-18T13:09:40;7.65;;;5.07;;
17686;SDS011;8962;52.538;13.266;2023-11-18T13:12:09;8.00;;;5.43;;
17686;SDS011;8962;52.538;13.266;2023-11-18T13:14:42;8.90;;;5.72;;
17686;SDS011;8962;52.538;13.266;2023-11-18T13:17:09;9.27;;;5.03;;
17686;SDS011;8962;52.538;13.266;2023-11-18T13:19:38;6.75;;;4.75;;
17686;SDS011;8962;52.538;13.266;2023-11-18T13:22:06;7.03;;;5.10;;
17686;SDS011;8962;52.538;13.266;2023-11-18T13:24:36;7.97;;;4.93;;
17686;SDS011;8962;52.538;13.266;2023-11-18T13:27:05;7.25;;;5.05;;
17686;SDS011;8962;52.538;13.266;2023-11-18T13:29:34;6.68;;;4.88;;
17686;SDS011;8962;52.538;13.266;2023-11-18T13:32:06;7.25;;;4.60;;
17686;SDS011;8962;52.538;13.266;2023-11-18T13:34:36;7.03;;;4.43;;
17686;SDS011;8962;52.538;13.266;2023-11-18T13:37:07;9.20;;;5.45;;
17686;SDS011;8962;52.538;13.266;2023-11-18T13:39:38;9.00;;;5.97;;
17686;SDS011;8962;52.538;13.266;2023-11-18T13:42:19;9.32;;;5.60;;
17686;SDS011;8962;52.538;13.266;2023-11-18T13:44:48;8.55;;;5.47;;
17686;SDS011;8962;52.538;13.266;2023-11-18T13:47:18;7.57;;;5.38;;
17686;SDS011;8962;52.538;13.266;2023-11-18T13:49:48;7.25;;;4.70;;
17686;SDS011;8962;52.538;13.266;2023-11-18T13:52:17;7.07;;;4.90;;
17686;SDS011;8962;52.538;13.266;2023-11-18T13:54:46;11.18;;;5.60;;
17686;SDS011;8962;52.538;13.266;2023-11-18T13:57:15;11.60;;;4.93;;
17686;SDS011;8962;52.538;13.266;2023-11-18T13:59:42;7.68;;;5.00;;
17686;SDS011;8962;52.538;13.266;2023-11-18T14:02:09;8.50;;;5.18;;
17686;SDS011;8962;52.538;13.266;2023-11-18T14:04:39;7.82;;;5.15;;
17686;SDS011;8962;52.538;13.266;2023-11-18T14:07:08;11.27;;;5.97;;
17686;SDS011;8962;52.538;13.266;2023-11-18T14:09:37;10.70;;;6.03;;
17686;SDS011;8962;52.538;13.266;2023-11-18T14:12:05;10.45;;;6.95;;
17686;SDS011;8962;52.538;13.266;2023-11-18T14:14:33;14.75;;;7.32;;
17686;SDS011;8962;52.538;13.266;2023-11-18T14:17:00;14.30;;;8.45;;
17686;SDS011;8962;52.538;13.266;2023-11-18T14:19:28;10.02;;;7.03;;
17686;SDS011;8962;52.538;13.266;2023-11-18T14:21:56;11.63;;;7.35;;
17686;SDS011;8962;52.538;13.266;2023-11-18T14:24:24;11.48;;;7.15;;
17686;SDS011;8962;52.538;13.266;2023-11-18T14:26:52;13.60;;;8.02;;
17686;SDS011;8962;52.538;13.266;2023-11-18T14:29:20;11.88;;;6.95;;
17686;SDS011;8962;52.538;13.266;2023-11-18T14:31:48;18.00;;;9.43;;
17686;SDS011;8962;52.538;13.266;2023-11-18T14:34:15;13.95;;;7.75;;
17686;SDS011;8962;52.538;13.266;2023-11-18T14:36:43;12.27;;;7.00;;
17686;SDS011;8962;52.538;13.266;2023-11-18T14:39:11;12.63;;;8.02;;
17686;SDS011;8962;52.538;13.266;2023-11-18T14:41:43;12.35;;;7.57;;
17686;SDS011;8962;52.538;13.266;2023-11-18T14:44:12;14.32;;;7.82;;
17686;SDS011;8962;52.538;13.266;2023-11-18T14:46:39;16.58;;;9.25;;
17686;SDS011;8962;52.538;13.266;2023-11-18T14:49:07;19.05;;;9.93;;
17686;SDS011;8962;52.538;13.266;2023-11-18T14:51:35;19.63;;;10.32;;
17686;SDS011;8962;52.538;13.266;2023-11-18T14:54:02;16.80;;;9.73;;
17686;SDS011;8962;52.538;13.266;2023-11-18T14:56:32;16.88;;;9.35;;
17686;SDS011;8962;52.538;13.266;2023-11-18T14:59:00;15.68;;;9.80;;
17686;SDS011;8962;52.538;13.266;2023-11-18T15:01:27;15.57;;;9.68;;